createdAt,value
2022-10-28T00:02:10.905Z,22.29
2022-10-28T00:07:12.790Z,22.30
2022-10-28T00:12:14.619Z,22.26
2022-10-28T00:17:16.577Z,22.30
2022-10-28T00:22:18.343Z,22.30
2022-10-28T00:27:20.164Z,22.25
2022-10-28T00:32:22.126Z,22.27
2022-10-28T00:37:24.312Z,22.32
2022-10-28T00:42:26.708Z,22.32
2022-10-28T00:47:44.390Z,22.30
2022-10-28T00:52:49.155Z,22.30
2022-10-28T00:57:51.554Z,22.25
2022-10-28T01:02:53.547Z,22.26
2022-10-28T01:07:59.744Z,22.28
2022-10-28T01:13:34.603Z,22.27
2022-10-28T01:18:45.322Z,22.26
2022-10-28T01:24:11.578Z,22.25
2022-10-28T01:29:40.567Z,22.24
2022-10-28T01:35:07.096Z,22.31
2022-10-28T01:40:34.115Z,22.24
2022-10-28T01:45:44.969Z,22.27
2022-10-28T01:50:49.397Z,22.30
2022-10-28T01:55:55.634Z,22.25
2022-10-28T02:01:00.991Z,22.29
2022-10-28T02:06:12.933Z,22.22
2022-10-28T02:11:51.543Z,22.27
2022-10-28T02:17:17.804Z,22.31
2022-10-28T02:23:01.591Z,22.31
2022-10-28T02:33:35.954Z,22.30
2022-10-28T02:38:42.552Z,22.28
2022-10-28T02:43:46.576Z,22.31
2022-10-28T02:48:53.706Z,22.31
2022-10-28T02:54:15.631Z,22.31
2022-10-28T02:59:17.672Z,22.28
2022-10-28T03:04:19.437Z,22.27
2022-10-28T03:09:21.318Z,22.27
2022-10-28T03:14:23.358Z,22.29
2022-10-28T03:19:25.298Z,22.30
2022-10-28T03:24:27.220Z,22.34
2022-10-28T03:29:29.149Z,22.32
2022-10-28T03:34:30.983Z,22.35
2022-10-28T03:39:33.119Z,22.31
2022-10-28T03:44:35.025Z,22.34
2022-10-28T03:49:37.130Z,22.29
2022-10-28T03:54:38.983Z,22.37
2022-10-28T03:59:40.949Z,22.29
2022-10-28T04:04:42.926Z,22.27
2022-10-28T04:09:44.665Z,22.36
2022-10-28T04:14:46.382Z,22.32
2022-10-28T04:19:48.192Z,22.31
2022-10-28T04:24:50.085Z,22.30
2022-10-28T04:29:52.044Z,22.28
2022-10-28T04:34:53.898Z,22.25
2022-10-28T04:39:55.764Z,22.27
2022-10-28T04:44:58.004Z,22.29
2022-10-28T04:49:59.978Z,22.35
2022-10-28T04:55:01.727Z,22.34
2022-10-28T05:00:05.126Z,22.36
2022-10-28T05:05:07.331Z,22.31
2022-10-28T05:10:09.525Z,22.30
2022-10-28T05:15:12.353Z,22.32
2022-10-28T05:20:16.852Z,22.31
2022-10-28T05:25:19.344Z,22.36
2022-10-28T05:30:21.122Z,22.29
2022-10-28T05:35:22.944Z,22.27
2022-10-28T05:40:25.490Z,22.32
2022-10-28T05:45:27.675Z,22.31
2022-10-28T05:50:29.558Z,22.33
2022-10-28T05:55:32.361Z,22.33
2022-10-28T06:00:34.126Z,22.29
2022-10-28T06:05:37.556Z,22.30
2022-10-28T06:10:40.359Z,22.27
2022-10-28T06:15:40.693Z,22.30
2022-10-28T06:20:42.559Z,22.25
2022-10-28T06:25:44.418Z,22.31
2022-10-28T06:30:46.352Z,22.29
2022-10-28T06:35:48.256Z,22.56
2022-10-28T06:40:52.398Z,22.53
2022-10-28T06:45:56.150Z,22.63
2022-10-28T06:50:59.554Z,22.66
2022-10-28T06:56:01.487Z,22.66
2022-10-28T07:01:04.774Z,22.64
2022-10-28T07:06:06.766Z,22.68
2022-10-28T07:11:08.930Z,22.55
2022-10-28T07:16:10.700Z,22.53
2022-10-28T07:21:14.149Z,22.52
2022-10-28T07:26:16.011Z,22.58
2022-10-28T07:31:18.151Z,22.50
2022-10-28T07:36:20.321Z,22.58
2022-10-28T07:41:22.467Z,22.46
2022-10-28T07:46:24.202Z,22.60
2022-10-28T07:51:26.190Z,22.71
2022-10-28T07:56:27.901Z,22.62
2022-10-28T08:01:29.838Z,22.71
2022-10-28T08:06:32.058Z,22.76
2022-10-28T08:11:33.761Z,22.66
2022-10-28T08:16:35.676Z,22.71
2022-10-28T08:21:37.618Z,22.58
2022-10-28T08:26:39.418Z,22.67
2022-10-28T08:31:41.307Z,22.74
2022-10-28T08:36:43.126Z,22.58
2022-10-28T08:41:52.164Z,22.74
2022-10-28T08:47:29.199Z,22.63
2022-10-28T08:52:34.287Z,22.66
2022-10-28T08:57:54.560Z,22.73
2022-10-28T09:03:01.893Z,22.81
2022-10-28T09:08:04.749Z,22.85
2022-10-28T09:13:10.503Z,22.82
2022-10-28T09:18:20.309Z,22.84
2022-10-28T09:23:27.543Z,22.74
2022-10-28T09:34:46.687Z,22.89
2022-10-28T09:39:53.282Z,22.90
2022-10-28T09:45:12.025Z,22.79
2022-10-28T09:50:21.946Z,22.93
2022-10-28T09:55:24.040Z,22.89
2022-10-28T10:00:26.071Z,22.76
2022-10-28T10:05:29.075Z,22.82
2022-10-28T10:10:46.211Z,22.98
2022-10-28T10:16:02.184Z,22.86
2022-10-28T10:21:04.377Z,22.90
2022-10-28T10:26:11.113Z,22.86
2022-10-28T10:31:26.558Z,22.96
2022-10-28T10:36:29.255Z,22.84
2022-10-28T10:41:42.265Z,22.87
2022-10-28T10:46:44.200Z,22.76
2022-10-28T10:52:01.786Z,22.80
2022-10-28T10:57:09.097Z,22.73
2022-10-28T11:02:35.287Z,22.67
2022-10-28T11:07:40.775Z,22.77
2022-10-28T11:12:51.926Z,22.83
2022-10-28T11:17:59.671Z,22.81
2022-10-28T11:23:04.115Z,22.78
2022-10-28T11:28:38.657Z,22.86
2022-10-28T11:34:09.723Z,22.83
2022-10-28T11:39:23.710Z,22.84
2022-10-28T11:44:31.710Z,22.84
2022-10-28T11:49:36.509Z,22.83
2022-10-28T11:55:03.469Z,22.88
2022-10-28T12:00:40.645Z,22.84
2022-10-28T12:06:20.748Z,22.75
2022-10-28T12:11:44.030Z,22.88
2022-10-28T12:16:57.145Z,22.86
2022-10-28T12:22:07.310Z,22.84
2022-10-28T12:27:36.310Z,22.81
2022-10-28T12:32:39.513Z,22.86
2022-10-28T12:37:51.852Z,22.84
2022-10-28T12:43:02.275Z,22.89
2022-10-28T12:48:15.799Z,23.00
2022-10-28T12:53:35.984Z,22.92
2022-10-28T12:59:15.301Z,22.88
2022-10-28T13:04:17.355Z,22.95
2022-10-28T13:09:39.636Z,22.97
2022-10-28T13:14:41.490Z,23.01
2022-10-28T13:20:05.031Z,22.96
2022-10-28T13:25:25.697Z,22.97
2022-10-28T13:30:31.044Z,23.03
2022-10-28T13:35:33.580Z,22.91
2022-10-28T13:40:35.309Z,22.99
2022-10-28T13:45:53.408Z,22.90
2022-10-28T13:51:10.568Z,22.92
2022-10-28T13:56:31.788Z,23.04
2022-10-28T14:02:01.914Z,22.84
2022-10-28T14:07:21.824Z,22.84
2022-10-28T14:12:32.293Z,22.93
2022-10-28T14:17:40.347Z,22.86
2022-10-28T14:22:42.165Z,22.84
2022-10-28T14:27:44.231Z,22.91
2022-10-28T14:32:48.899Z,22.95
2022-10-28T14:38:27.996Z,22.82
2022-10-28T14:44:02.482Z,22.79
2022-10-28T14:49:14.038Z,22.86
2022-10-28T14:54:20.995Z,22.81
2022-10-28T14:59:30.268Z,22.86
2022-10-28T15:04:32.147Z,22.89
2022-10-28T15:09:35.279Z,22.92
2022-10-28T15:14:40.190Z,22.93
2022-10-28T15:19:42.927Z,22.96
2022-10-28T15:25:01.544Z,22.92
2022-10-28T15:30:13.577Z,22.90
2022-10-28T15:35:27.586Z,22.92
2022-10-28T15:40:32.229Z,22.85
2022-10-28T15:45:42.126Z,22.87
2022-10-28T15:50:44.289Z,22.81
2022-10-28T16:01:27.985Z,22.97
2022-10-28T16:06:36.132Z,22.81
2022-10-28T16:11:42.871Z,22.88
2022-10-28T16:16:44.722Z,22.79
2022-10-28T16:21:46.354Z,22.77
2022-10-28T16:26:48.050Z,22.79
2022-10-28T16:31:52.793Z,22.91
2022-10-28T16:36:54.799Z,22.83
2022-10-28T16:41:58.026Z,22.78
2022-10-28T16:46:59.921Z,22.77
2022-10-28T16:52:03.349Z,22.82
2022-10-28T16:57:05.237Z,22.83
2022-10-28T17:02:16.103Z,22.76
2022-10-28T17:07:18.707Z,22.78
2022-10-28T17:12:23.521Z,22.85
2022-10-28T17:17:25.449Z,22.82
2022-10-28T17:22:27.992Z,22.75
2022-10-28T17:27:30.145Z,22.74
2022-10-28T17:32:32.131Z,22.71
2022-10-28T17:37:34.101Z,22.79
2022-10-28T17:42:36.036Z,22.79
2022-10-28T17:47:37.879Z,22.79
2022-10-28T17:52:39.824Z,22.79
2022-10-28T17:57:41.644Z,22.78
2022-10-28T18:02:43.602Z,22.78
2022-10-28T18:07:45.585Z,22.76
2022-10-28T18:12:51.080Z,22.72
2022-10-28T18:17:52.989Z,22.74
2022-10-28T18:22:54.943Z,22.68
2022-10-28T18:27:56.940Z,22.72
2022-10-28T18:32:58.765Z,22.78
2022-10-28T18:38:01.414Z,22.84
2022-10-28T18:43:03.231Z,22.90
2022-10-28T18:48:06.456Z,22.87
2022-10-28T18:53:08.570Z,22.85
2022-10-28T18:58:14.522Z,22.81
2022-10-28T19:03:21.929Z,22.86
2022-10-28T19:08:23.818Z,22.93
2022-10-28T19:13:25.885Z,23.03
2022-10-28T19:18:28.070Z,22.97
2022-10-28T19:23:33.424Z,23.00
2022-10-28T19:28:46.712Z,22.84
2022-10-28T19:33:48.876Z,22.90
2022-10-28T19:38:53.832Z,22.84
2022-10-28T19:43:58.703Z,22.81
2022-10-28T19:49:04.294Z,22.95
2022-10-28T19:54:09.803Z,22.85
2022-10-28T19:59:11.873Z,22.78
2022-10-28T20:04:13.652Z,22.85
2022-10-28T20:09:15.346Z,22.79
2022-10-28T20:14:17.279Z,22.79
2022-10-28T20:19:19.060Z,22.77
2022-10-28T20:24:20.927Z,22.84
2022-10-28T20:29:22.571Z,23.02
2022-10-28T20:34:24.426Z,22.87
2022-10-28T20:39:26.428Z,22.93
2022-10-28T20:44:28.139Z,22.79
2022-10-28T20:49:30.446Z,22.83
2022-10-28T20:54:32.348Z,22.86
2022-10-28T20:59:34.269Z,22.83
2022-10-28T21:04:36.903Z,22.83
2022-10-28T21:09:38.617Z,22.81
2022-10-28T21:14:40.407Z,22.90
2022-10-28T21:19:42.170Z,22.83
2022-10-28T21:24:43.857Z,22.94
2022-10-28T21:29:45.686Z,23.03
2022-10-28T21:34:47.452Z,23.04
2022-10-28T21:39:51.562Z,22.99
2022-10-28T21:44:53.371Z,22.91
2022-10-28T21:49:55.405Z,22.85
2022-10-28T21:54:57.154Z,22.87
2022-10-28T21:59:59.364Z,22.86
2022-10-28T22:05:01.173Z,22.83
2022-10-28T22:10:03.021Z,22.83
2022-10-28T22:15:05.357Z,22.81
2022-10-28T22:20:07.885Z,22.80
2022-10-28T22:25:10.617Z,22.79
2022-10-28T22:30:14.208Z,22.80
2022-10-28T22:35:16.301Z,22.82
2022-10-28T22:40:18.098Z,22.81
2022-10-28T22:45:20.090Z,22.76
2022-10-28T22:50:21.871Z,22.79
2022-10-28T22:55:23.776Z,22.82
2022-10-28T23:00:25.618Z,22.82
2022-10-28T23:05:27.441Z,22.78
2022-10-28T23:10:29.582Z,22.75
2022-10-28T23:15:31.658Z,22.80
2022-10-28T23:20:35.722Z,22.83
2022-10-28T23:25:37.594Z,22.83
2022-10-28T23:30:39.395Z,22.79
2022-10-28T23:35:42.994Z,22.85
2022-10-28T23:40:44.769Z,22.81
2022-10-28T23:45:46.820Z,22.78
2022-10-28T23:50:48.765Z,22.79
2022-10-28T23:55:51.674Z,22.79
